Time;durP1;ratioP1;P1;durP2;ratioP2;P2;SDS_P1;SDS_P2;PMS_P1;PMS_P2;Temp;Humidity;BMP_temperature;BMP_pressure;BME280_temperature;BME280_humidity;BME280_pressure;Samples;Min_cycle;Max_cycle;Signal;HPM_P1;HPM_P2
2022/01/29 00:01:33;;;;;;;14.60;10.23;;;2.90;99.90;;;;;;4953062;29;20674;-66
2022/01/29 00:03:59;;;;;;;17.47;10.63;;;2.80;99.90;;;;;;4953401;28;20192;-66
2022/01/29 00:06:25;;;;;;;13.40;10.63;;;2.90;99.90;;;;;;4952963;29;20751;-66
2022/01/29 00:08:53;;;;;;;19.73;10.33;;;2.90;99.90;;;;;;4953438;29;20637;-66
2022/01/29 00:11:20;;;;;;;13.40;10.57;;;2.90;99.90;;;;;;4948378;28;20475;-66
2022/01/29 00:13:45;;;;;;;13.40;10.47;;;2.90;99.90;;;;;;4953214;28;20491;-66
2022/01/29 00:16:11;;;;;;;17.70;13.07;;;2.90;99.90;;;;;;4953001;29;20464;-66
2022/01/29 00:18:36;;;;;;;19.30;10.53;;;2.90;99.90;;;;;;4953099;29;20195;-66
2022/01/29 00:21:03;;;;;;;12.53;9.57;;;2.90;99.90;;;;;;4951685;29;20185;-66
2022/01/29 00:23:28;;;;;;;13.03;9.70;;;2.90;99.90;;;;;;4951938;29;20197;-66
2022/01/29 00:25:54;;;;;;;13.17;10.50;;;2.90;99.90;;;;;;4951162;29;20447;-66
2022/01/29 00:28:19;;;;;;;14.93;11.13;;;2.90;99.90;;;;;;4951789;28;20207;-66
2022/01/29 00:30:45;;;;;;;15.00;10.30;;;2.90;99.90;;;;;;4957084;29;20687;-66
2022/01/29 00:33:12;;;;;;;12.90;10.20;;;3.00;99.90;;;;;;4956345;29;20197;-66
2022/01/29 00:35:39;;;;;;;12.87;10.20;;;3.00;99.90;;;;;;4956454;29;20187;-66
2022/01/29 00:38:04;;;;;;;11.17;9.33;;;3.00;99.90;;;;;;4956803;29;20806;-66
2022/01/29 00:40:31;;;;;;;14.20;9.50;;;3.00;99.90;;;;;;4956396;29;20442;-66
2022/01/29 00:42:58;;;;;;;12.10;9.27;;;3.00;99.90;;;;;;4956702;28;20287;-66
2022/01/29 00:45:23;;;;;;;13.27;10.03;;;3.00;99.90;;;;;;4956393;29;20592;-66
2022/01/29 00:47:49;;;;;;;12.60;9.50;;;3.00;99.90;;;;;;4956357;29;20542;-66
2022/01/29 00:50:15;;;;;;;15.13;9.67;;;3.00;99.90;;;;;;4956748;29;20256;-66
2022/01/29 00:52:40;;;;;;;14.07;8.77;;;3.00;99.90;;;;;;4956200;28;20209;-66
2022/01/29 00:55:07;;;;;;;17.10;10.63;;;3.00;99.90;;;;;;4956345;29;20216;-66
2022/01/29 00:57:35;;;;;;;14.93;9.07;;;2.90;99.90;;;;;;4956504;29;20209;-66
2022/01/29 01:00:01;;;;;;;12.10;8.60;;;2.90;99.90;;;;;;4956494;29;20451;-66
2022/01/29 01:02:26;;;;;;;12.70;8.30;;;2.80;99.90;;;;;;4955769;29;20484;-66
2022/01/29 01:04:52;;;;;;;13.37;8.37;;;2.80;99.90;;;;;;4956290;29;20204;-66
2022/01/29 01:07:17;;;;;;;11.77;7.10;;;2.80;99.90;;;;;;4955871;29;20203;-66
2022/01/29 01:09:43;;;;;;;8.73;6.80;;;2.80;99.90;;;;;;4952474;29;20228;-66
2022/01/29 01:12:08;;;;;;;9.37;8.10;;;2.80;99.90;;;;;;4956110;29;20177;-66
2022/01/29 01:14:35;;;;;;;9.17;7.37;;;2.90;99.90;;;;;;4956184;28;20185;-66
2022/01/29 01:17:00;;;;;;;10.30;7.40;;;3.00;99.90;;;;;;4955762;28;20169;-66
2022/01/29 01:19:26;;;;;;;9.40;6.50;;;3.00;99.90;;;;;;4955698;29;20491;-66
2022/01/29 01:21:54;;;;;;;8.43;6.20;;;3.00;99.90;;;;;;4955395;29;20216;-66
2022/01/29 01:24:20;;;;;;;9.47;7.53;;;3.00;99.90;;;;;;4952449;29;20232;-66
2022/01/29 01:26:46;;;;;;;12.07;9.40;;;3.00;99.90;;;;;;4954783;29;20433;-66
2022/01/29 01:29:11;;;;;;;8.73;6.93;;;3.00;99.90;;;;;;4955817;29;20945;-66
2022/01/29 01:31:38;;;;;;;12.10;7.40;;;3.10;99.90;;;;;;4955745;29;20456;-66
2022/01/29 01:34:05;;;;;;;9.53;6.20;;;3.10;99.90;;;;;;4954578;29;20976;-66
2022/01/29 01:36:33;;;;;;;8.03;6.60;;;3.10;99.90;;;;;;4955362;28;20446;-66
2022/01/29 01:39:04;;;;;;;10.07;6.80;;;3.20;99.90;;;;;;4955701;29;20436;-66
2022/01/29 01:41:37;;;;;;;7.57;6.57;;;3.20;99.90;;;;;;4954862;28;20440;-66
2022/01/29 01:44:03;;;;;;;7.17;6.47;;;3.20;99.90;;;;;;4955424;28;20456;-66
2022/01/29 01:46:29;;;;;;;7.20;6.10;;;3.30;99.90;;;;;;4945202;29;20471;-66
2022/01/29 01:48:56;;;;;;;8.27;6.97;;;3.30;99.90;;;;;;4955323;28;20500;-66
2022/01/29 01:51:21;;;;;;;8.10;6.77;;;3.30;99.90;;;;;;4955264;28;20439;-66
2022/01/29 01:53:48;;;;;;;10.43;7.10;;;3.30;99.90;;;;;;4955387;29;20452;-66
2022/01/29 01:56:13;;;;;;;7.30;5.70;;;3.30;99.90;;;;;;4954871;29;20292;-66
2022/01/29 01:58:39;;;;;;;9.83;6.37;;;3.30;99.90;;;;;;4955402;29;20563;-66
2022/01/29 02:01:05;;;;;;;8.13;7.20;;;3.30;99.90;;;;;;4955476;29;20173;-66
2022/01/29 02:03:30;;;;;;;8.40;6.80;;;3.20;99.90;;;;;;4955065;28;20219;-66
2022/01/29 02:05:57;;;;;;;11.13;7.47;;;3.20;99.90;;;;;;4955063;29;20655;-66
2022/01/29 02:08:23;;;;;;;10.63;7.17;;;3.20;99.90;;;;;;4955104;29;20189;-66
2022/01/29 02:10:50;;;;;;;7.40;6.13;;;3.10;99.90;;;;;;4954865;28;20428;-66
2022/01/29 02:13:15;;;;;;;9.83;7.87;;;3.20;99.90;;;;;;4954737;29;20456;-66
2022/01/29 02:15:41;;;;;;;12.60;7.90;;;3.20;99.90;;;;;;4954440;29;20516;-66
2022/01/29 02:18:14;;;;;;;6.43;5.77;;;3.20;99.90;;;;;;4955078;28;20232;-66
2022/01/29 02:20:42;;;;;;;11.37;7.33;;;3.20;99.90;;;;;;4955019;28;20596;-66
2022/01/29 02:23:08;;;;;;;13.30;7.50;;;3.20;99.90;;;;;;4954935;29;20452;-66
2022/01/29 02:25:39;;;;;;;8.43;7.00;;;3.20;99.90;;;;;;4954426;29;21018;-66
2022/01/29 02:28:11;;;;;;;7.93;7.13;;;3.10;99.90;;;;;;4954690;29;20205;-66
2022/01/29 02:30:39;;;;;;;12.10;7.27;;;3.10;99.90;;;;;;4954614;29;20436;-66
2022/01/29 02:33:09;;;;;;;10.97;6.53;;;3.20;99.90;;;;;;4954057;28;20544;-66
2022/01/29 02:35:39;;;;;;;12.47;7.70;;;3.20;99.90;;;;;;4954108;28;20528;-66
2022/01/29 02:38:05;;;;;;;8.63;7.73;;;3.20;99.90;;;;;;4954408;29;20476;-66
2022/01/29 02:40:35;;;;;;;7.80;5.77;;;3.30;99.90;;;;;;4953774;29;20859;-66
2022/01/29 02:43:34;;;;;;;7.10;6.10;;;3.30;99.90;;;;;;4954008;28;20706;-66
2022/01/29 02:48:53;;;;;;;8.40;6.30;;;3.30;99.90;;;;;;4938186;28;20531;-66
2022/01/29 02:51:19;;;;;;;7.73;6.40;;;3.30;99.90;;;;;;4954240;29;21046;-66
2022/01/29 02:53:46;;;;;;;9.33;7.10;;;3.30;99.90;;;;;;4952863;28;20577;-66
2022/01/29 02:56:12;;;;;;;10.90;6.50;;;3.20;99.90;;;;;;4953627;29;20436;-66
2022/01/29 02:58:37;;;;;;;7.33;6.50;;;3.30;99.90;;;;;;4953714;29;20502;-66
2022/01/29 03:01:05;;;;;;;7.80;6.20;;;3.20;99.90;;;;;;4953715;29;20216;-66
2022/01/29 03:03:31;;;;;;;9.17;6.37;;;3.20;99.90;;;;;;4953801;29;20279;-66
2022/01/29 03:05:56;;;;;;;6.00;5.40;;;3.20;99.90;;;;;;4953793;29;21032;-66
2022/01/29 03:08:22;;;;;;;8.50;6.17;;;3.00;99.90;;;;;;4954072;29;20201;-66
2022/01/29 03:10:48;;;;;;;7.87;7.00;;;2.90;99.90;;;;;;4953544;29;20188;-66
2022/01/29 03:13:14;;;;;;;8.20;7.17;;;2.80;99.90;;;;;;4953839;29;20634;-66
2022/01/29 03:15:40;;;;;;;7.80;6.10;;;2.80;99.90;;;;;;4953400;29;20185;-66
2022/01/29 03:18:05;;;;;;;9.60;5.33;;;2.80;99.90;;;;;;4953655;29;20785;-66
2022/01/29 03:20:31;;;;;;;10.57;7.23;;;2.90;99.90;;;;;;4953294;29;20181;-66
2022/01/29 03:22:58;;;;;;;7.80;6.30;;;2.90;99.90;;;;;;4953669;29;20196;-66
2022/01/29 03:25:23;;;;;;;13.47;5.80;;;2.90;99.90;;;;;;4953392;29;20449;-66
2022/01/29 03:27:49;;;;;;;8.70;6.53;;;2.90;99.90;;;;;;4953500;29;20459;-66
2022/01/29 03:30:15;;;;;;;6.00;5.23;;;2.90;99.90;;;;;;4953001;29;20441;-66
2022/01/29 03:32:42;;;;;;;6.40;5.50;;;2.90;99.90;;;;;;4953514;29;21364;-66
2022/01/29 03:35:08;;;;;;;8.23;5.20;;;2.90;99.90;;;;;;4953012;28;20176;-66
2022/01/29 03:37:34;;;;;;;5.47;4.90;;;2.90;99.90;;;;;;4953497;28;20580;-66
2022/01/29 03:40:03;;;;;;;10.63;6.47;;;2.90;99.90;;;;;;4953404;29;20535;-66
2022/01/29 03:42:30;;;;;;;7.00;4.40;;;3.00;99.90;;;;;;4952954;28;20200;-66
2022/01/29 03:44:57;;;;;;;6.60;5.60;;;3.00;99.90;;;;;;4953279;29;20516;-66
2022/01/29 03:47:23;;;;;;;8.83;5.63;;;3.00;99.90;;;;;;4953227;28;20456;-66
2022/01/29 03:49:49;;;;;;;6.60;4.80;;;3.10;99.90;;;;;;4953395;28;20456;-66
2022/01/29 03:52:14;;;;;;;7.23;4.93;;;3.10;99.90;;;;;;4953035;29;20243;-66
2022/01/29 03:54:40;;;;;;;7.43;5.27;;;3.20;99.90;;;;;;4952924;29;20686;-66
2022/01/29 03:57:05;;;;;;;5.27;4.70;;;3.30;99.90;;;;;;4946707;29;20174;-66
2022/01/29 03:59:31;;;;;;;6.87;4.80;;;3.30;99.90;;;;;;4946844;29;20663;-66
2022/01/29 04:01:56;;;;;;;7.63;5.37;;;3.30;99.90;;;;;;4952940;29;20322;-66
2022/01/29 04:04:22;;;;;;;5.60;5.10;;;3.40;99.90;;;;;;4955307;28;20201;-67
2022/01/29 04:06:49;;;;;;;7.10;4.60;;;3.40;99.90;;;;;;4957383;29;20206;-67
2022/01/29 04:09:15;;;;;;;5.67;5.07;;;3.40;99.90;;;;;;4957048;28;20204;-67
2022/01/29 04:11:41;;;;;;;6.33;5.10;;;3.40;99.90;;;;;;4956700;29;20962;-67
2022/01/29 04:14:31;;;;;;;5.40;4.90;;;3.30;99.90;;;;;;4956515;29;20518;-67
2022/01/29 04:16:55;;;;;;;5.73;4.60;;;3.20;99.90;;;;;;4956715;28;20601;-67
2022/01/29 04:19:21;;;;;;;5.13;4.40;;;3.10;99.90;;;;;;4956881;29;20428;-67
2022/01/29 04:21:46;;;;;;;4.63;4.23;;;3.00;99.90;;;;;;4956354;29;20184;-66
2022/01/29 04:24:12;;;;;;;6.30;4.50;;;3.00;99.90;;;;;;4956539;29;20547;-67
2022/01/29 04:26:37;;;;;;;6.90;4.50;;;3.00;99.90;;;;;;4955276;29;20172;-67
2022/01/29 04:29:07;;;;;;;6.93;4.50;;;3.00;99.90;;;;;;4956453;29;20694;-67
2022/01/29 04:31:54;;;;;;;4.53;4.10;;;3.00;99.90;;;;;;4956314;28;20173;-66
2022/01/29 04:34:21;;;;;;;5.60;4.13;;;3.10;99.90;;;;;;4956269;29;20459;-66
2022/01/29 04:36:47;;;;;;;6.73;3.83;;;3.10;99.90;;;;;;4952790;29;20441;-67
2022/01/29 04:39:12;;;;;;;4.77;3.97;;;3.10;99.90;;;;;;4956424;29;21153;-67
2022/01/29 04:41:38;;;;;;;4.90;3.60;;;3.20;99.90;;;;;;4956386;28;20193;-67
2022/01/29 04:44:04;;;;;;;4.40;3.97;;;3.10;99.90;;;;;;4955937;29;20240;-67
2022/01/29 04:46:29;;;;;;;5.60;3.70;;;3.20;99.90;;;;;;4955881;29;20177;-67
2022/01/29 04:48:55;;;;;;;6.90;3.63;;;3.20;99.90;;;;;;4956268;29;20232;-66
2022/01/29 04:51:21;;;;;;;5.97;3.50;;;3.20;99.90;;;;;;4956270;29;20180;-67
2022/01/29 04:53:47;;;;;;;4.83;3.27;;;3.10;99.90;;;;;;4956129;29;20193;-67
2022/01/29 04:56:13;;;;;;;5.53;3.70;;;3.10;99.90;;;;;;4955329;29;20491;-67
2022/01/29 04:58:38;;;;;;;5.17;3.63;;;3.00;99.90;;;;;;4955896;29;20462;-67
2022/01/29 05:01:05;;;;;;;6.37;4.20;;;3.00;99.90;;;;;;4956098;29;20188;-67
2022/01/29 05:03:31;;;;;;;4.67;3.33;;;3.10;99.90;;;;;;4955791;28;20204;-67
2022/01/29 05:05:58;;;;;;;8.23;3.70;;;3.20;99.90;;;;;;4955657;29;20797;-67
2022/01/29 05:08:24;;;;;;;5.03;3.27;;;3.30;99.90;;;;;;4955776;28;20857;-68
2022/01/29 05:10:49;;;;;;;5.77;3.40;;;3.40;99.90;;;;;;4955931;28;20444;-67
2022/01/29 05:13:20;;;;;;;5.07;3.90;;;3.50;99.90;;;;;;4955759;29;20469;-67
2022/01/29 05:26:52;;;;;;;6.67;4.80;;;3.60;99.90;;;;;;4955079;29;20961;-67
2022/01/29 05:29:18;;;;;;;5.03;4.53;;;3.60;99.90;;;;;;4955708;28;20808;-66
2022/01/29 05:31:44;;;;;;;4.80;4.40;;;3.40;99.90;;;;;;4954554;29;20523;-67
2022/01/29 05:34:09;;;;;;;5.07;4.67;;;3.30;99.90;;;;;;4955513;28;20196;-67
2022/01/29 05:36:35;;;;;;;8.73;5.07;;;3.20;99.90;;;;;;4954695;29;20261;-67
2022/01/29 05:39:02;;;;;;;4.53;3.83;;;3.20;99.90;;;;;;4955676;29;20184;-68
2022/01/29 05:41:28;;;;;;;5.30;4.90;;;3.30;99.90;;;;;;4954566;29;20252;-68
2022/01/29 05:43:54;;;;;;;5.13;4.13;;;3.30;99.90;;;;;;4955607;28;20463;-67
2022/01/29 05:46:19;;;;;;;4.27;3.87;;;3.20;99.90;;;;;;4954712;29;20883;-67
2022/01/29 05:48:45;;;;;;;5.33;4.10;;;3.30;99.90;;;;;;4955552;29;20555;-67
2022/01/29 05:51:11;;;;;;;5.50;4.20;;;3.20;99.90;;;;;;4955222;29;20177;-67
2022/01/29 05:53:37;;;;;;;5.03;4.10;;;3.20;99.90;;;;;;4955219;29;20280;-66
2022/01/29 05:56:03;;;;;;;7.50;4.27;;;3.30;99.90;;;;;;4954766;29;20881;-67
2022/01/29 05:58:29;;;;;;;4.73;4.20;;;3.20;99.90;;;;;;4954516;29;20173;-68
2022/01/29 06:00:54;;;;;;;6.13;4.50;;;3.10;99.90;;;;;;4955612;29;20451;-67
2022/01/29 06:03:20;;;;;;;5.20;4.70;;;3.10;99.90;;;;;;4954626;28;20626;-66
2022/01/29 06:05:45;;;;;;;8.63;5.80;;;3.10;99.90;;;;;;4954957;29;20189;-67
2022/01/29 06:08:11;;;;;;;5.20;4.70;;;3.10;99.90;;;;;;4955041;29;20248;-67
2022/01/29 06:10:36;;;;;;;5.50;4.23;;;3.10;99.90;;;;;;4955164;29;20192;-67
2022/01/29 06:13:04;;;;;;;4.93;4.13;;;3.10;99.90;;;;;;4954799;29;20267;-66
2022/01/29 06:15:33;;;;;;;7.07;4.63;;;3.10;99.90;;;;;;4954963;28;20264;-67
2022/01/29 06:17:59;;;;;;;5.47;4.90;;;3.10;99.90;;;;;;4954383;29;20631;-67
2022/01/29 06:20:26;;;;;;;6.27;5.03;;;3.10;99.90;;;;;;4954823;29;20440;-67
2022/01/29 06:22:52;;;;;;;6.90;4.50;;;3.20;99.90;;;;;;4954691;28;20205;-66
2022/01/29 06:25:17;;;;;;;5.60;4.60;;;3.20;99.90;;;;;;4954200;29;20467;-67
2022/01/29 06:27:43;;;;;;;5.53;4.60;;;3.40;99.90;;;;;;4954160;28;20460;-67
2022/01/29 06:30:09;;;;;;;7.33;5.80;;;3.40;99.90;;;;;;4954890;29;20191;-67
2022/01/29 06:32:35;;;;;;;9.13;5.97;;;3.50;99.90;;;;;;4953447;29;20201;-67
2022/01/29 06:35:00;;;;;;;6.47;5.80;;;3.40;99.90;;;;;;4953870;29;20818;-68
2022/01/29 06:37:26;;;;;;;6.60;5.67;;;3.40;99.90;;;;;;4954400;29;20183;-67
2022/01/29 06:39:51;;;;;;;6.30;5.60;;;3.50;99.90;;;;;;4954749;29;20216;-67
2022/01/29 06:42:17;;;;;;;6.07;5.47;;;3.40;99.90;;;;;;4954154;29;20189;-67
2022/01/29 06:44:42;;;;;;;6.60;6.00;;;3.40;99.90;;;;;;4954456;29;20243;-67
2022/01/29 06:47:08;;;;;;;6.33;5.40;;;3.30;99.90;;;;;;4954035;29;20181;-67
2022/01/29 06:49:33;;;;;;;6.13;5.60;;;3.30;99.90;;;;;;4953775;29;20681;-67
2022/01/29 06:51:59;;;;;;;7.43;5.50;;;3.20;99.90;;;;;;4953806;29;20185;-67
2022/01/29 06:54:24;;;;;;;7.10;5.33;;;3.20;99.90;;;;;;4953639;29;20256;-67
2022/01/29 06:56:50;;;;;;;8.43;6.50;;;3.30;99.90;;;;;;4953344;29;20225;-67
2022/01/29 06:59:15;;;;;;;6.77;6.10;;;3.40;99.90;;;;;;4953902;29;20729;-66
2022/01/29 07:01:41;;;;;;;7.50;6.53;;;3.50;99.90;;;;;;4953023;29;20544;-66
2022/01/29 07:04:06;;;;;;;7.57;6.80;;;3.50;99.90;;;;;;4953412;29;20196;-67
2022/01/29 07:06:32;;;;;;;7.50;6.07;;;3.50;99.90;;;;;;4953548;29;20558;-67
2022/01/29 07:08:58;;;;;;;7.90;6.40;;;3.50;99.90;;;;;;4953780;29;20193;-67
2022/01/29 07:11:25;;;;;;;7.83;6.57;;;3.50;99.90;;;;;;4953477;29;20628;-67
2022/01/29 07:14:02;;;;;;;9.40;6.57;;;3.40;99.90;;;;;;4953330;29;20464;-67
2022/01/29 07:16:29;;;;;;;8.03;6.80;;;3.40;99.90;;;;;;4953079;29;20436;-66
2022/01/29 07:18:55;;;;;;;6.70;6.00;;;3.40;99.90;;;;;;4953436;29;20429;-68
2022/01/29 07:21:20;;;;;;;6.53;5.90;;;3.30;99.90;;;;;;4953613;29;20435;-67
2022/01/29 07:23:46;;;;;;;8.67;7.80;;;3.20;99.90;;;;;;4952999;29;20208;-67
2022/01/29 07:26:11;;;;;;;7.40;6.30;;;3.20;99.90;;;;;;4953360;29;20177;-66
2022/01/29 07:28:39;;;;;;;12.00;8.83;;;3.10;99.90;;;;;;4953001;29;20248;-66
2022/01/29 07:31:05;;;;;;;8.17;6.93;;;3.20;99.90;;;;;;4953589;28;20169;-67
2022/01/29 07:33:30;;;;;;;8.07;5.93;;;3.20;99.90;;;;;;4953127;29;20480;-67
2022/01/29 07:35:56;;;;;;;10.43;5.63;;;3.20;99.90;;;;;;4952626;28;20467;-67
2022/01/29 07:38:22;;;;;;;7.63;6.53;;;3.20;99.90;;;;;;4952861;28;20180;-66
2022/01/29 07:40:47;;;;;;;9.63;5.70;;;3.20;99.90;;;;;;4953410;29;20185;-67
2022/01/29 07:43:13;;;;;;;7.93;5.30;;;3.20;99.90;;;;;;4953121;29;20634;-67
2022/01/29 07:45:39;;;;;;;6.63;4.50;;;3.10;99.90;;;;;;4952480;29;20231;-66
2022/01/29 07:48:05;;;;;;;7.60;5.40;;;3.10;99.90;;;;;;4951800;29;20256;-67
2022/01/29 07:50:30;;;;;;;4.90;4.40;;;3.20;99.90;;;;;;4953437;28;20247;-67
2022/01/29 07:52:57;;;;;;;6.23;3.90;;;3.20;99.90;;;;;;4952740;29;20460;-67
2022/01/29 07:55:23;;;;;;;7.40;5.30;;;3.20;99.90;;;;;;4952754;29;20256;-68
2022/01/29 07:57:49;;;;;;;5.20;4.00;;;3.20;99.90;;;;;;4953094;29;20860;-67
2022/01/29 08:00:15;;;;;;;4.97;3.97;;;3.20;99.90;;;;;;4953013;28;20444;-66
2022/01/29 08:02:41;;;;;;;5.33;4.20;;;3.20;99.90;;;;;;4951067;29;20472;-67
2022/01/29 08:05:07;;;;;;;5.47;4.60;;;3.30;99.90;;;;;;4952593;29;20181;-68
2022/01/29 08:07:33;;;;;;;11.63;5.17;;;3.40;99.90;;;;;;4953279;28;20314;-68
2022/01/29 08:09:58;;;;;;;4.33;3.93;;;3.40;99.90;;;;;;4953487;29;21108;-67
2022/01/29 08:12:24;;;;;;;4.63;3.93;;;3.50;99.90;;;;;;4952922;29;20196;-67
2022/01/29 08:14:49;;;;;;;9.13;5.00;;;3.50;99.90;;;;;;4953284;29;20553;-67
2022/01/29 08:17:14;;;;;;;4.27;3.87;;;3.60;99.90;;;;;;4952631;29;20557;-67
2022/01/29 08:19:40;;;;;;;3.67;3.30;;;3.70;99.90;;;;;;4953181;29;20187;-67
2022/01/29 08:22:06;;;;;;;4.50;3.70;;;3.70;99.90;;;;;;4952336;29;20179;-67
2022/01/29 08:24:31;;;;;;;4.57;4.00;;;3.70;99.90;;;;;;4952729;29;20551;-67
2022/01/29 08:26:57;;;;;;;3.87;3.57;;;3.60;99.90;;;;;;4952832;28;20168;-67
2022/01/29 08:29:22;;;;;;;6.00;4.03;;;3.70;99.90;;;;;;4953238;29;20207;-68
2022/01/29 08:31:48;;;;;;;4.80;3.43;;;3.70;99.90;;;;;;4952685;29;20251;-67
2022/01/29 08:34:14;;;;;;;4.57;4.17;;;3.80;99.90;;;;;;4952797;29;20231;-68
2022/01/29 08:36:39;;;;;;;5.73;4.07;;;3.80;99.90;;;;;;4952729;28;20181;-69
2022/01/29 08:39:05;;;;;;;4.87;4.43;;;3.80;99.90;;;;;;4953158;29;20736;-67
2022/01/29 08:41:30;;;;;;;4.50;3.80;;;3.90;99.90;;;;;;4952374;29;20209;-67
2022/01/29 08:43:56;;;;;;;4.43;3.93;;;3.90;99.90;;;;;;4952909;29;20674;-67
2022/01/29 08:46:21;;;;;;;6.70;4.73;;;4.00;99.90;;;;;;4952022;29;20178;-66
2022/01/29 08:48:47;;;;;;;8.67;4.30;;;4.10;99.90;;;;;;4951905;29;20207;-68
2022/01/29 08:51:12;;;;;;;4.90;4.40;;;4.20;99.90;;;;;;4955312;28;20185;-66
2022/01/29 08:53:38;;;;;;;6.53;5.30;;;4.30;99.90;;;;;;4956355;29;20575;-66
2022/01/29 08:56:04;;;;;;;7.00;4.90;;;4.30;99.90;;;;;;4955794;29;20182;-66
2022/01/29 08:58:30;;;;;;;6.27;4.87;;;4.30;99.90;;;;;;4956528;29;20186;-66
2022/01/29 09:00:56;;;;;;;12.70;5.87;;;4.30;99.90;;;;;;4955576;29;20775;-66
2022/01/29 09:03:23;;;;;;;5.80;4.33;;;4.30;99.90;;;;;;4951036;29;20209;-65
2022/01/29 09:05:48;;;;;;;5.53;3.93;;;4.50;99.90;;;;;;4955965;29;20185;-67
2022/01/29 09:08:16;;;;;;;5.50;4.50;;;4.60;99.90;;;;;;4956225;29;20472;-66
2022/01/29 09:10:42;;;;;;;6.47;5.87;;;4.70;99.90;;;;;;4954295;29;20185;-67
2022/01/29 09:13:08;;;;;;;6.30;5.20;;;4.80;99.90;;;;;;4955952;29;20463;-67
2022/01/29 09:15:34;;;;;;;7.13;4.47;;;4.80;99.90;;;;;;4955033;29;20256;-67
2022/01/29 09:17:59;;;;;;;6.80;4.93;;;4.90;99.90;;;;;;4955791;29;20885;-66
2022/01/29 09:20:25;;;;;;;6.23;4.07;;;5.00;99.90;;;;;;4955460;29;20236;-67
2022/01/29 09:22:51;;;;;;;6.53;4.93;;;5.20;99.90;;;;;;4956156;29;20635;-67
2022/01/29 09:25:17;;;;;;;8.17;4.40;;;5.30;99.90;;;;;;4955762;29;20432;-66
2022/01/29 09:27:42;;;;;;;4.70;4.10;;;5.50;99.90;;;;;;4955991;29;20212;-66
2022/01/29 09:30:08;;;;;;;5.37;4.20;;;5.80;99.90;;;;;;4955356;29;20275;-67
2022/01/29 09:32:34;;;;;;;5.80;5.00;;;6.20;99.90;;;;;;4956029;29;20197;-67
2022/01/29 09:34:59;;;;;;;6.70;4.80;;;6.40;99.90;;;;;;4955381;29;20981;-67
2022/01/29 09:37:25;;;;;;;8.87;4.90;;;6.70;99.90;;;;;;4955682;29;20746;-67
2022/01/29 09:39:52;;;;;;;5.50;4.90;;;6.70;99.90;;;;;;4955328;29;20181;-67
2022/01/29 09:42:18;;;;;;;7.97;6.03;;;6.80;99.90;;;;;;4955170;29;20247;-66
2022/01/29 09:44:46;;;;;;;8.57;5.53;;;7.00;99.90;;;;;;4955162;28;20437;-65
2022/01/29 09:47:12;;;;;;;6.70;5.27;;;7.70;99.90;;;;;;4955453;29;20448;-65
2022/01/29 09:49:38;;;;;;;5.70;4.33;;;8.30;99.90;;;;;;4955162;29;20441;-65
2022/01/29 09:52:04;;;;;;;5.70;4.23;;;8.70;99.90;;;;;;4955614;29;20497;-66
2022/01/29 09:54:29;;;;;;;10.17;5.30;;;8.90;99.90;;;;;;4955253;29;20784;-66
2022/01/29 09:56:55;;;;;;;16.83;5.90;;;8.80;99.90;;;;;;4954367;29;20193;-64
2022/01/29 09:59:21;;;;;;;7.47;4.90;;;8.70;99.90;;;;;;4955160;29;20207;-66
2022/01/29 10:01:46;;;;;;;6.27;5.67;;;10.10;99.90;;;;;;4954212;28;20275;-67
2022/01/29 10:04:12;;;;;;;5.03;4.33;;;11.70;99.90;;;;;;4955515;29;20691;-65
2022/01/29 10:06:38;;;;;;;4.87;4.47;;;12.90;99.90;;;;;;4954719;29;20233;-65
2022/01/29 10:09:06;;;;;;;6.37;4.30;;;14.10;98.30;;;;;;4954958;28;20248;-68
2022/01/29 10:11:32;;;;;;;5.67;4.50;;;13.80;97.80;;;;;;4953408;29;20169;-67
2022/01/29 10:14:02;;;;;;;5.67;5.07;;;13.70;97.80;;;;;;4954578;29;20980;-66
2022/01/29 10:16:30;;;;;;;6.30;5.70;;;14.50;96.60;;;;;;4954450;28;20464;-67
2022/01/29 10:19:31;;;;;;;5.37;4.87;;;15.60;94.20;;;;;;4955094;29;20441;-67
2022/01/29 10:21:57;;;;;;;6.17;4.90;;;14.60;94.20;;;;;;4933505;29;20448;-67
2022/01/29 10:24:22;;;;;;;5.27;4.77;;;14.80;93.20;;;;;;4954978;29;20820;-66
2022/01/29 10:26:50;;;;;;;5.33;4.80;;;13.60;94.70;;;;;;4954274;29;20188;-67
2022/01/29 10:29:20;;;;;;;8.60;5.27;;;12.70;96.80;;;;;;4954218;28;20255;-66
2022/01/29 10:31:49;;;;;;;6.33;5.10;;;11.30;99.40;;;;;;4955150;29;20432;-66
2022/01/29 10:34:36;;;;;;;6.93;5.07;;;10.40;99.90;;;;;;4955186;29;20531;-67
2022/01/29 10:37:18;;;;;;;6.70;4.00;;;9.60;99.90;;;;;;4954870;29;20431;-66
2022/01/29 10:39:51;;;;;;;6.87;5.30;;;9.00;99.90;;;;;;4955131;29;20459;-66
2022/01/29 10:42:29;;;;;;;5.47;4.47;;;8.70;99.90;;;;;;4954811;29;20917;-67
2022/01/29 10:44:57;;;;;;;4.97;4.57;;;8.70;99.90;;;;;;4954906;29;20424;-66
2022/01/29 10:47:23;;;;;;;4.90;4.50;;;8.60;99.90;;;;;;4954803;29;20416;-66
2022/01/29 10:49:51;;;;;;;7.07;4.30;;;8.80;99.90;;;;;;4954887;29;20424;-66
2022/01/29 10:52:18;;;;;;;5.30;4.07;;;8.80;99.90;;;;;;4954825;29;20487;-66
2022/01/29 10:54:47;;;;;;;4.00;3.60;;;8.70;99.90;;;;;;4954830;29;20424;-66
2022/01/29 10:57:17;;;;;;;3.80;3.50;;;8.50;99.90;;;;;;4954702;29;20464;-66
2022/01/29 10:59:53;;;;;;;3.63;3.30;;;8.40;99.90;;;;;;4954730;29;20427;-66
2022/01/29 11:02:20;;;;;;;4.20;2.60;;;8.30;99.90;;;;;;4954430;29;20926;-66
2022/01/29 11:04:48;;;;;;;4.60;3.00;;;8.20;99.90;;;;;;4954471;29;20436;-66
2022/01/29 11:07:17;;;;;;;3.23;2.83;;;8.10;99.90;;;;;;4954259;28;20982;-66
2022/01/29 11:09:46;;;;;;;4.33;3.67;;;8.00;99.90;;;;;;4954620;29;20424;-66
2022/01/29 11:12:16;;;;;;;4.20;3.00;;;7.90;99.90;;;;;;4954483;29;20420;-65
2022/01/29 11:14:42;;;;;;;2.73;1.80;;;7.80;99.90;;;;;;4953587;28;20487;-66
2022/01/29 11:17:08;;;;;;;2.80;2.50;;;7.70;99.90;;;;;;4954187;29;20511;-66
2022/01/29 11:19:34;;;;;;;3.80;2.93;;;7.70;99.90;;;;;;4954388;29;20428;-66
2022/01/29 11:22:04;;;;;;;3.60;2.57;;;7.80;99.90;;;;;;4954411;29;20417;-66
2022/01/29 11:24:31;;;;;;;2.67;2.47;;;7.70;99.90;;;;;;4954358;29;20177;-66
2022/01/29 11:26:56;;;;;;;2.53;2.33;;;7.60;99.90;;;;;;4954078;29;20424;-66
2022/01/29 11:29:23;;;;;;;2.27;1.90;;;7.60;99.90;;;;;;4954130;29;20523;-66
2022/01/29 11:31:49;;;;;;;2.80;2.50;;;7.60;99.90;;;;;;4954280;29;20236;-65
2022/01/29 11:34:14;;;;;;;2.40;2.20;;;7.60;99.90;;;;;;4954314;29;20444;-66
2022/01/29 11:36:49;;;;;;;4.00;2.60;;;7.60;99.90;;;;;;4953947;29;20169;-66
2022/01/29 11:39:28;;;;;;;3.20;2.60;;;7.60;99.90;;;;;;4954153;29;20181;-66
2022/01/29 11:42:20;;;;;;;3.80;2.80;;;7.60;99.90;;;;;;4954115;29;20897;-66
2022/01/29 11:44:46;;;;;;;3.57;2.47;;;7.60;99.90;;;;;;4952040;29;20428;-66
2022/01/29 11:47:27;;;;;;;2.53;2.33;;;7.50;99.90;;;;;;4953829;29;20428;-66
2022/01/29 11:50:12;;;;;;;3.80;3.00;;;7.40;99.90;;;;;;4954404;29;21005;-66
2022/01/29 11:52:56;;;;;;;2.50;2.17;;;7.40;99.90;;;;;;4954096;28;20435;-66
2022/01/29 11:55:35;;;;;;;5.30;2.47;;;7.30;99.90;;;;;;4953867;29;20512;-67
2022/01/29 11:58:13;;;;;;;3.93;3.53;;;7.20;99.90;;;;;;4953895;29;20420;-66
2022/01/29 12:00:39;;;;;;;2.40;2.20;;;7.20;99.90;;;;;;4953749;29;20424;-66
2022/01/29 12:03:05;;;;;;;4.50;1.90;;;7.20;99.90;;;;;;4953680;29;20471;-66
2022/01/29 12:08:40;;;;;;;3.90;2.40;;;7.20;99.90;;;;;;4953914;28;20452;-66
2022/01/29 12:11:13;;;;;;;3.33;2.10;;;7.20;99.90;;;;;;4953863;28;20831;-66
2022/01/29 12:13:40;;;;;;;3.60;3.27;;;7.20;99.90;;;;;;4952452;29;20583;-65
2022/01/29 12:16:09;;;;;;;5.33;3.40;;;7.20;99.90;;;;;;4953352;29;20416;-66
2022/01/29 12:18:36;;;;;;;3.20;2.37;;;7.30;99.90;;;;;;4953718;29;20420;-66
2022/01/29 12:21:05;;;;;;;3.10;2.57;;;7.50;99.90;;;;;;4953647;29;20432;-66
2022/01/29 12:23:50;;;;;;;3.43;3.13;;;7.80;99.90;;;;;;4953537;29;20984;-66
2022/01/29 12:26:20;;;;;;;3.47;2.37;;;7.80;99.90;;;;;;4956677;28;20941;-66
2022/01/29 12:28:51;;;;;;;3.03;2.43;;;7.50;99.90;;;;;;4957439;29;20456;-66
2022/01/29 12:31:18;;;;;;;2.97;2.37;;;7.50;99.90;;;;;;4956228;29;20460;-66
2022/01/29 12:33:44;;;;;;;3.43;3.10;;;7.40;99.90;;;;;;4957429;29;20443;-66
2022/01/29 12:36:09;;;;;;;2.50;2.30;;;7.30;99.90;;;;;;4957058;29;20421;-66
2022/01/29 12:38:41;;;;;;;3.57;2.80;;;7.20;99.90;;;;;;4957421;29;20432;-67
2022/01/29 12:41:11;;;;;;;3.07;2.30;;;7.00;99.90;;;;;;4957314;29;20176;-66
2022/01/29 12:43:52;;;;;;;3.67;2.20;;;7.00;99.90;;;;;;4957237;29;20444;-66
2022/01/29 12:46:24;;;;;;;3.43;2.50;;;7.00;99.90;;;;;;4957089;29;21002;-66
2022/01/29 12:49:07;;;;;;;3.30;2.47;;;7.20;99.90;;;;;;4957114;29;20835;-66
2022/01/29 12:51:48;;;;;;;3.70;2.70;;;7.40;99.90;;;;;;4957153;29;20416;-66
2022/01/29 12:54:13;;;;;;;3.40;3.10;;;7.60;99.90;;;;;;4956986;29;20432;-66
2022/01/29 12:56:39;;;;;;;4.17;2.93;;;7.60;99.90;;;;;;4956742;29;20768;-66
2022/01/29 12:59:07;;;;;;;4.57;2.80;;;7.40;99.90;;;;;;4956937;29;20263;-66
2022/01/29 13:01:35;;;;;;;3.10;2.53;;;7.20;99.90;;;;;;4956787;29;20181;-66
2022/01/29 13:04:19;;;;;;;7.60;2.60;;;7.20;99.90;;;;;;4956863;29;20946;-67
2022/01/29 13:06:47;;;;;;;6.00;2.17;;;7.10;99.90;;;;;;4956717;29;20428;-66
2022/01/29 13:09:19;;;;;;;3.50;2.50;;;7.10;99.90;;;;;;4956679;29;20456;-66
2022/01/29 13:11:46;;;;;;;3.03;2.47;;;7.00;99.90;;;;;;4956799;29;20428;-66
2022/01/29 13:14:19;;;;;;;3.53;2.43;;;6.90;99.90;;;;;;4956734;29;20814;-66